sensor_id;sensor_type;location;lat;lon;timestamp;pressure;altitude;pressure_sealevel;temperature;humidity
73941;BME280;62294;48.554;10.202;2023-05-11T00:00:38;89723.16;;;9.35;100.00
73941;BME280;62294;48.554;10.202;2023-05-11T00:03:05;89735.94;;;9.26;100.00
73941;BME280;62294;48.554;10.202;2023-05-11T00:05:32;89723.16;;;9.35;100.00
73941;BME280;62294;48.554;10.202;2023-05-11T00:07:58;89723.81;;;9.25;100.00
73941;BME280;62294;48.554;10.202;2023-05-11T00:10:25;89725.72;;;9.28;100.00
73941;BME280;62294;48.554;10.202;2023-05-11T00:12:53;89727.59;;;9.24;100.00
73941;BME280;62294;48.554;10.202;2023-05-11T00:15:19;89734.38;;;9.25;100.00
73941;BME280;62294;48.554;10.202;2023-05-11T00:17:46;89708.00;;;9.36;100.00
73941;BME280;62294;48.554;10.202;2023-05-11T00:20:13;89711.78;;;9.35;100.00
73941;BME280;62294;48.554;10.202;2023-05-11T00:22:39;89707.59;;;9.34;100.00
73941;BME280;62294;48.554;10.202;2023-05-11T00:25:10;89716.56;;;9.18;100.00
73941;BME280;62294;48.554;10.202;2023-05-11T00:27:36;89717.72;;;9.21;100.00
73941;BME280;62294;48.554;10.202;2023-05-11T00:30:03;89721.47;;;9.20;100.00
73941;BME280;62294;48.554;10.202;2023-05-11T00:32:30;89715.78;;;9.18;100.00
73941;BME280;62294;48.554;10.202;2023-05-11T00:34:56;89701.84;;;9.24;100.00
73941;BME280;62294;48.554;10.202;2023-05-11T00:37:23;89667.72;;;9.16;100.00
73941;BME280;62294;48.554;10.202;2023-05-11T00:39:51;89689.31;;;9.18;100.00
73941;BME280;62294;48.554;10.202;2023-05-11T00:42:18;89708.16;;;9.13;100.00
73941;BME280;62294;48.554;10.202;2023-05-11T00:44:44;89715.00;;;9.14;100.00
73941;BME280;62294;48.554;10.202;2023-05-11T00:47:11;89690.84;;;9.19;100.00
73941;BME280;62294;48.554;10.202;2023-05-11T00:49:38;89703.25;;;9.15;100.00
73941;BME280;62294;48.554;10.202;2023-05-11T00:52:05;89695.75;;;9.17;100.00
73941;BME280;62294;48.554;10.202;2023-05-11T00:54:31;89706.22;;;9.06;100.00
73941;BME280;62294;48.554;10.202;2023-05-11T00:56:58;89698.72;;;9.12;100.00
73941;BME280;62294;48.554;10.202;2023-05-11T00:59:25;89679.88;;;9.20;100.00
73941;BME280;62294;48.554;10.202;2023-05-11T01:01:52;89680.56;;;9.14;100.00
73941;BME280;62294;48.554;10.202;2023-05-11T01:04:19;89675.69;;;9.19;100.00
73941;BME280;62294;48.554;10.202;2023-05-11T01:10:01;89676.69;;;9.04;100.00
73941;BME280;62294;48.554;10.202;2023-05-11T01:15:11;89664.66;;;9.10;100.00
73941;BME280;62294;48.554;10.202;2023-05-11T01:17:57;89687.25;;;9.01;100.00
73941;BME280;62294;48.554;10.202;2023-05-11T01:20:26;89656.75;;;9.14;100.00
73941;BME280;62294;48.554;10.202;2023-05-11T01:31:09;89611.41;;;9.19;100.00
73941;BME280;62294;48.554;10.202;2023-05-11T01:33:40;89587.97;;;9.21;100.00
73941;BME280;62294;48.554;10.202;2023-05-11T01:36:10;89604.97;;;9.16;100.00
73941;BME280;62294;48.554;10.202;2023-05-11T01:38:40;89595.19;;;9.24;100.00
73941;BME280;62294;48.554;10.202;2023-05-11T01:41:11;89602.66;;;9.15;100.00
73941;BME280;62294;48.554;10.202;2023-05-11T01:43:39;89603.44;;;9.15;100.00
73941;BME280;62294;48.554;10.202;2023-05-11T01:46:09;89590.97;;;9.16;100.00
73941;BME280;62294;48.554;10.202;2023-05-11T01:48:38;89601.50;;;9.09;100.00
73941;BME280;62294;48.554;10.202;2023-05-11T01:51:07;89610.91;;;9.06;100.00
73941;BME280;62294;48.554;10.202;2023-05-11T01:53:36;89584.50;;;9.10;100.00
73941;BME280;62294;48.554;10.202;2023-05-11T01:56:04;89572.44;;;9.16;100.00
73941;BME280;62294;48.554;10.202;2023-05-11T01:58:33;89570.50;;;9.13;100.00
73941;BME280;62294;48.554;10.202;2023-05-11T02:01:02;89536.16;;;9.20;100.00
73941;BME280;62294;48.554;10.202;2023-05-11T02:03:30;89538.41;;;9.18;100.00
73941;BME280;62294;48.554;10.202;2023-05-11T02:05:59;89551.19;;;9.05;100.00
73941;BME280;62294;48.554;10.202;2023-05-11T02:08:28;89533.78;;;9.04;100.00
73941;BME280;62294;48.554;10.202;2023-05-11T02:10:56;89526.59;;;9.05;100.00
73941;BME280;62294;48.554;10.202;2023-05-11T02:13:25;89517.56;;;9.09;100.00
73941;BME280;62294;48.554;10.202;2023-05-11T02:15:55;89488.44;;;9.13;100.00
73941;BME280;62294;48.554;10.202;2023-05-11T02:18:24;89503.50;;;9.02;100.00
73941;BME280;62294;48.554;10.202;2023-05-11T02:20:51;89485.31;;;8.97;100.00
73941;BME280;62294;48.554;10.202;2023-05-11T02:23:19;89474.75;;;9.00;100.00
73941;BME280;62294;48.554;10.202;2023-05-11T02:25:47;89465.69;;;9.01;100.00
73941;BME280;62294;48.554;10.202;2023-05-11T02:28:15;89439.22;;;9.01;100.00
73941;BME280;62294;48.554;10.202;2023-05-11T02:30:46;89442.25;;;9.00;100.00
73941;BME280;62294;48.554;10.202;2023-05-11T02:33:18;89418.81;;;9.02;100.00
73941;BME280;62294;48.554;10.202;2023-05-11T02:35:48;89399.16;;;9.03;100.00
73941;BME280;62294;48.554;10.202;2023-05-11T02:38:17;89387.06;;;9.02;100.00
73941;BME280;62294;48.554;10.202;2023-05-11T02:40:49;89358.72;;;9.06;100.00
73941;BME280;62294;48.554;10.202;2023-05-11T02:43:23;89356.81;;;9.03;100.00
73941;BME280;62294;48.554;10.202;2023-05-11T02:45:52;89322.06;;;9.08;100.00
73941;BME280;62294;48.554;10.202;2023-05-11T02:48:25;89300.13;;;9.11;100.00
73941;BME280;62294;48.554;10.202;2023-05-11T02:50:54;89291.41;;;9.10;100.00
73941;BME280;62294;48.554;10.202;2023-05-11T02:53:25;89280.47;;;9.12;100.00
73941;BME280;62294;48.554;10.202;2023-05-11T02:55:56;89251.34;;;9.08;100.00
73941;BME280;62294;48.554;10.202;2023-05-11T02:58:23;89250.59;;;9.08;100.00
73941;BME280;62294;48.554;10.202;2023-05-11T03:00:50;89230.94;;;9.16;100.00
73941;BME280;62294;48.554;10.202;2023-05-11T03:03:17;89227.16;;;9.10;100.00
73941;BME280;62294;48.554;10.202;2023-05-11T03:05:44;89208.63;;;9.13;100.00
73941;BME280;62294;48.554;10.202;2023-05-11T03:08:10;89206.34;;;9.08;100.00
73941;BME280;62294;48.554;10.202;2023-05-11T03:10:37;89176.09;;;9.13;100.00
73941;BME280;62294;48.554;10.202;2023-05-11T03:13:05;89113.34;;;9.31;100.00
73941;BME280;62294;48.554;10.202;2023-05-11T03:15:32;89084.22;;;9.42;100.00
73941;BME280;62294;48.554;10.202;2023-05-11T03:17:59;89053.56;;;9.51;100.00
73941;BME280;62294;48.554;10.202;2023-05-11T03:20:27;89027.09;;;9.51;100.00
73941;BME280;62294;48.554;10.202;2023-05-11T03:22:55;89093.66;;;9.50;100.00
73941;BME280;62294;48.554;10.202;2023-05-11T03:25:23;89113.34;;;9.42;100.00
73941;BME280;62294;48.554;10.202;2023-05-11T03:27:50;89135.66;;;9.23;100.00
73941;BME280;62294;48.554;10.202;2023-05-11T03:30:18;89154.19;;;9.23;100.00
73941;BME280;62294;48.554;10.202;2023-05-11T03:32:46;89148.53;;;9.21;100.00
73941;BME280;62294;48.554;10.202;2023-05-11T03:35:12;89134.16;;;9.36;100.00
73941;BME280;62294;48.554;10.202;2023-05-11T03:37:40;89094.03;;;9.45;100.00
73941;BME280;62294;48.554;10.202;2023-05-11T03:40:08;89095.94;;;9.48;100.00
73941;BME280;62294;48.554;10.202;2023-05-11T03:42:38;89085.34;;;9.51;100.00
73941;BME280;62294;48.554;10.202;2023-05-11T03:45:08;89109.56;;;9.43;100.00
73941;BME280;62294;48.554;10.202;2023-05-11T03:47:40;89145.88;;;9.24;100.00
73941;BME280;62294;48.554;10.202;2023-05-11T03:50:08;89150.41;;;9.20;100.00
73941;BME280;62294;48.554;10.202;2023-05-11T03:52:35;89157.22;;;9.21;100.00
73941;BME280;62294;48.554;10.202;2023-05-11T03:55:03;89161.75;;;9.24;100.00
73941;BME280;62294;48.554;10.202;2023-05-11T03:57:30;89161.00;;;9.27;100.00
73941;BME280;62294;48.554;10.202;2023-05-11T03:59:56;89168.97;;;9.24;100.00
73941;BME280;62294;48.554;10.202;2023-05-11T04:02:23;89158.75;;;9.33;100.00
73941;BME280;62294;48.554;10.202;2023-05-11T04:04:50;89143.59;;;9.41;100.00
73941;BME280;62294;48.554;10.202;2023-05-11T04:07:18;89136.03;;;9.46;100.00
73941;BME280;62294;48.554;10.202;2023-05-11T04:09:45;89109.16;;;9.55;100.00
73941;BME280;62294;48.554;10.202;2023-05-11T04:12:11;89142.09;;;9.40;100.00
73941;BME280;62294;48.554;10.202;2023-05-11T04:14:38;89138.31;;;9.41;100.00
73941;BME280;62294;48.554;10.202;2023-05-11T04:17:04;89164.81;;;9.37;100.00
73941;BME280;62294;48.554;10.202;2023-05-11T04:19:31;89175.38;;;9.30;100.00
73941;BME280;62294;48.554;10.202;2023-05-11T04:21:57;89175.38;;;9.30;100.00
73941;BME280;62294;48.554;10.202;2023-05-11T04:24:24;89161.38;;;9.44;100.00
73941;BME280;62294;48.554;10.202;2023-05-11T04:26:54;89140.59;;;9.53;100.00
73941;BME280;62294;48.554;10.202;2023-05-11T04:29:21;89133.75;;;9.59;100.00
73941;BME280;62294;48.554;10.202;2023-05-11T04:31:48;89164.03;;;9.47;100.00
73941;BME280;62294;48.554;10.202;2023-05-11T04:34:14;89185.22;;;9.37;100.00
73941;BME280;62294;48.554;10.202;2023-05-11T04:36:41;89174.25;;;9.38;100.00
73941;BME280;62294;48.554;10.202;2023-05-11T04:39:07;89160.25;;;9.41;100.00
73941;BME280;62294;48.554;10.202;2023-05-11T04:41:34;89185.59;;;9.39;100.00
73941;BME280;62294;48.554;10.202;2023-05-11T04:44:00;89197.31;;;9.41;100.00
73941;BME280;62294;48.554;10.202;2023-05-11T04:46:27;89165.94;;;9.47;100.00
73941;BME280;62294;48.554;10.202;2023-05-11T04:48:53;89155.72;;;9.52;100.00
73941;BME280;62294;48.554;10.202;2023-05-11T04:51:20;89157.22;;;9.53;100.00
73941;BME280;62294;48.554;10.202;2023-05-11T04:53:46;89158.72;;;9.54;100.00
73941;BME280;62294;48.554;10.202;2023-05-11T04:56:13;89149.66;;;9.62;100.00
73941;BME280;62294;48.554;10.202;2023-05-11T04:58:39;89125.41;;;9.74;100.00
73941;BME280;62294;48.554;10.202;2023-05-11T05:01:06;89111.03;;;9.82;100.00
73941;BME280;62294;48.554;10.202;2023-05-11T05:03:32;89098.16;;;9.84;100.00
73941;BME280;62294;48.554;10.202;2023-05-11T05:05:59;89117.81;;;9.83;100.00
73941;BME280;62294;48.554;10.202;2023-05-11T05:08:26;89097.75;;;9.89;100.00
73941;BME280;62294;48.554;10.202;2023-05-11T05:10:52;89100.03;;;9.94;100.00
73941;BME280;62294;48.554;10.202;2023-05-11T05:13:18;89090.56;;;9.97;100.00
73941;BME280;62294;48.554;10.202;2023-05-11T05:15:45;89099.63;;;9.96;100.00
73941;BME280;62294;48.554;10.202;2023-05-11T05:18:12;89113.28;;;9.91;100.00
73941;BME280;62294;48.554;10.202;2023-05-11T05:20:38;89117.44;;;9.95;100.00
73941;BME280;62294;48.554;10.202;2023-05-11T05:23:05;89115.16;;;10.01;100.00
73941;BME280;62294;48.554;10.202;2023-05-11T05:25:31;89113.25;;;10.05;100.00
73941;BME280;62294;48.554;10.202;2023-05-11T05:27:58;89115.53;;;9.99;100.00
73941;BME280;62294;48.554;10.202;2023-05-11T05:30:24;89113.22;;;10.09;100.00
73941;BME280;62294;48.554;10.202;2023-05-11T05:32:51;89118.53;;;10.09;100.00
73941;BME280;62294;48.554;10.202;2023-05-11T05:35:18;89128.41;;;10.15;100.00
73941;BME280;62294;48.554;10.202;2023-05-11T05:37:44;89141.28;;;10.17;100.00
73941;BME280;62294;48.554;10.202;2023-05-11T05:40:11;89155.66;;;10.19;100.00
73941;BME280;62294;48.554;10.202;2023-05-11T05:42:37;89183.69;;;10.13;100.00
73941;BME280;62294;48.554;10.202;2023-05-11T05:45:04;89186.69;;;10.22;100.00
73941;BME280;62294;48.554;10.202;2023-05-11T05:47:31;89194.25;;;10.27;100.00
73941;BME280;62294;48.554;10.202;2023-05-11T05:49:57;89226.84;;;10.21;100.00
73941;BME280;62294;48.554;10.202;2023-05-11T05:52:24;89235.19;;;10.23;100.00
73941;BME280;62294;48.554;10.202;2023-05-11T05:54:51;89240.47;;;10.30;100.00
73941;BME280;62294;48.554;10.202;2023-05-11T05:57:17;89273.84;;;10.24;100.00
73941;BME280;62294;48.554;10.202;2023-05-11T05:59:44;89316.97;;;10.03;100.00
73941;BME280;62294;48.554;10.202;2023-05-11T06:02:10;89328.00;;;10.12;100.00
73941;BME280;62294;48.554;10.202;2023-05-11T06:04:38;89343.53;;;10.14;100.00
73941;BME280;62294;48.554;10.202;2023-05-11T06:07:05;89340.50;;;10.29;100.00
73941;BME280;62294;48.554;10.202;2023-05-11T06:09:31;89362.47;;;10.30;100.00
73941;BME280;62294;48.554;10.202;2023-05-11T06:11:58;89390.13;;;10.25;100.00
73941;BME280;62294;48.554;10.202;2023-05-11T06:14:25;89401.47;;;10.29;100.00
73941;BME280;62294;48.554;10.202;2023-05-11T06:16:51;89400.75;;;10.39;100.00
73941;BME280;62294;48.554;10.202;2023-05-11T06:19:19;89397.34;;;10.46;100.00
73941;BME280;62294;48.554;10.202;2023-05-11T06:21:46;89402.25;;;10.47;100.00
73941;BME280;62294;48.554;10.202;2023-05-11T06:24:13;89388.22;;;10.61;100.00
73941;BME280;62294;48.554;10.202;2023-05-11T06:26:40;89377.63;;;10.68;100.00
73941;BME280;62294;48.554;10.202;2023-05-11T06:29:06;89405.31;;;10.49;100.00
73941;BME280;62294;48.554;10.202;2023-05-11T06:31:33;89412.50;;;10.49;100.00
73941;BME280;62294;48.554;10.202;2023-05-11T06:34:00;89397.72;;;10.65;100.00
73941;BME280;62294;48.554;10.202;2023-05-11T06:36:26;89393.19;;;10.62;100.00
73941;BME280;62294;48.554;10.202;2023-05-11T06:38:52;89409.88;;;10.63;100.00
73941;BME280;62294;48.554;10.202;2023-05-11T06:41:19;89412.13;;;10.75;100.00
73941;BME280;62294;48.554;10.202;2023-05-11T06:43:46;89439.78;;;10.78;100.00
73941;BME280;62294;48.554;10.202;2023-05-11T06:46:12;89478.06;;;10.66;100.00
73941;BME280;62294;48.554;10.202;2023-05-11T06:48:42;89526.19;;;10.47;100.00
73941;BME280;62294;48.554;10.202;2023-05-11T06:51:09;89566.34;;;10.45;100.00
73941;BME280;62294;48.554;10.202;2023-05-11T06:53:37;89559.56;;;10.55;100.00
73941;BME280;62294;48.554;10.202;2023-05-11T06:56:04;89575.13;;;10.60;100.00
73941;BME280;62294;48.554;10.202;2023-05-11T06:58:30;89573.59;;;10.66;100.00
73941;BME280;62294;48.554;10.202;2023-05-11T07:00:57;89576.28;;;10.73;100.00
73941;BME280;62294;48.554;10.202;2023-05-11T07:03:24;89620.94;;;10.46;100.00
73941;BME280;62294;48.554;10.202;2023-05-11T07:05:50;89632.34;;;10.54;100.00
73941;BME280;62294;48.554;10.202;2023-05-11T07:08:16;89651.63;;;10.44;100.00
73941;BME280;62294;48.554;10.202;2023-05-11T07:10:43;89647.91;;;10.62;100.00
73941;BME280;62294;48.554;10.202;2023-05-11T07:13:09;89659.69;;;10.68;100.00
73941;BME280;62294;48.554;10.202;2023-05-11T07:15:36;89691.13;;;10.63;100.00
73941;BME280;62294;48.554;10.202;2023-05-11T07:18:03;89720.22;;;10.45;100.00
73941;BME280;62294;48.554;10.202;2023-05-11T07:20:29;89714.25;;;10.62;100.00
73941;BME280;62294;48.554;10.202;2023-05-11T07:22:57;89721.88;;;10.71;100.00
73941;BME280;62294;48.554;10.202;2023-05-11T07:25:28;89736.63;;;10.68;100.00
73941;BME280;62294;48.554;10.202;2023-05-11T07:27:54;89741.97;;;10.72;100.00
73941;BME280;62294;48.554;10.202;2023-05-11T07:30:21;89741.63;;;10.81;100.00
73941;BME280;62294;48.554;10.202;2023-05-11T07:32:48;89769.59;;;10.64;100.00
73941;BME280;62294;48.554;10.202;2023-05-11T07:35:15;89756.78;;;10.80;100.00
73941;BME280;62294;48.554;10.202;2023-05-11T07:37:41;89745.78;;;10.78;100.00
73941;BME280;62294;48.554;10.202;2023-05-11T07:40:08;89740.47;;;10.82;100.00
73941;BME280;62294;48.554;10.202;2023-05-11T07:42:35;89747.75;;;10.88;100.00
73941;BME280;62294;48.554;10.202;2023-05-11T07:45:02;89776.91;;;10.85;100.00
73941;BME280;62294;48.554;10.202;2023-05-11T07:47:28;89793.19;;;10.80;100.00
73941;BME280;62294;48.554;10.202;2023-05-11T07:49:55;89787.16;;;10.86;100.00
73941;BME280;62294;48.554;10.202;2023-05-11T07:52:21;89818.94;;;10.72;100.00
73941;BME280;62294;48.554;10.202;2023-05-11T07:54:48;89803.50;;;10.88;100.00
73941;BME280;62294;48.554;10.202;2023-05-11T07:57:14;89826.59;;;10.84;100.00
73941;BME280;62294;48.554;10.202;2023-05-11T07:59:41;89824.75;;;10.95;100.00
73941;BME280;62294;48.554;10.202;2023-05-11T08:02:07;89830.47;;;10.97;100.00
73941;BME280;62294;48.554;10.202;2023-05-11T08:04:38;89812.31;;;11.10;100.00
73941;BME280;62294;48.554;10.202;2023-05-11T08:07:04;89807.06;;;11.24;100.00
73941;BME280;62294;48.554;10.202;2023-05-11T08:09:31;89800.19;;;11.12;100.00
73941;BME280;62294;48.554;10.202;2023-05-11T08:11:58;89769.50;;;11.22;100.00
73941;BME280;62294;48.554;10.202;2023-05-11T08:14:27;89764.19;;;11.25;100.00
73941;BME280;62294;48.554;10.202;2023-05-11T08:16:53;89735.41;;;11.56;100.00
73941;BME280;62294;48.554;10.202;2023-05-11T08:19:20;89788.84;;;11.22;100.00
73941;BME280;62294;48.554;10.202;2023-05-11T08:21:46;89817.63;;;11.10;100.00
73941;BME280;62294;48.554;10.202;2023-05-11T08:24:13;89815.41;;;11.29;100.00
73941;BME280;62294;48.554;10.202;2023-05-11T08:26:40;89813.59;;;11.40;100.00
73941;BME280;62294;48.554;10.202;2023-05-11T08:29:07;89812.50;;;11.56;100.00
73941;BME280;62294;48.554;10.202;2023-05-11T08:31:33;89775.38;;;11.84;100.00
73941;BME280;62294;48.554;10.202;2023-05-11T08:33:59;89925.28;;;10.97;100.00
73941;BME280;62294;48.554;10.202;2023-05-11T08:36:26;89923.84;;;11.06;100.00
73941;BME280;62294;48.554;10.202;2023-05-11T08:38:53;89926.22;;;11.22;100.00
73941;BME280;62294;48.554;10.202;2023-05-11T08:41:24;89956.53;;;11.17;100.00
73941;BME280;62294;48.554;10.202;2023-05-11T08:43:51;89975.13;;;11.17;100.00
73941;BME280;62294;48.554;10.202;2023-05-11T08:46:20;89982.09;;;11.39;100.00
73941;BME280;62294;48.554;10.202;2023-05-11T08:48:48;89987.09;;;11.48;100.00
73941;BME280;62294;48.554;10.202;2023-05-11T08:51:16;89989.81;;;11.59;100.00
73941;BME280;62294;48.554;10.202;2023-05-11T08:53:42;89978.16;;;11.77;100.00
73941;BME280;62294;48.554;10.202;2023-05-11T08:56:09;89988.88;;;11.91;100.00
73941;BME280;62294;48.554;10.202;2023-05-11T08:58:37;90021.13;;;11.83;100.00
73941;BME280;62294;48.554;10.202;2023-05-11T09:01:05;90081.41;;;11.68;100.00
73941;BME280;62294;48.554;10.202;2023-05-11T09:03:34;90101.19;;;11.71;100.00
73941;BME280;62294;48.554;10.202;2023-05-11T09:06:03;90084.59;;;11.91;100.00
73941;BME280;62294;48.554;10.202;2023-05-11T09:08:36;90057.44;;;12.23;100.00
73941;BME280;62294;48.554;10.202;2023-05-11T09:11:04;90076.84;;;12.30;100.00
73941;BME280;62294;48.554;10.202;2023-05-11T09:13:31;90173.13;;;11.92;100.00
73941;BME280;62294;48.554;10.202;2023-05-11T09:15:58;90251.47;;;11.61;100.00
73941;BME280;62294;48.554;10.202;2023-05-11T09:18:25;90257.31;;;11.77;100.00
73941;BME280;62294;48.554;10.202;2023-05-11T09:20:52;90320.50;;;11.54;100.00
73941;BME280;62294;48.554;10.202;2023-05-11T09:23:23;90340.22;;;11.53;100.00
73941;BME280;62294;48.554;10.202;2023-05-11T09:25:53;90302.03;;;12.01;100.00
73941;BME280;62294;48.554;10.202;2023-05-11T09:28:24;90306.63;;;12.08;100.00
73941;BME280;62294;48.554;10.202;2023-05-11T09:30:52;90319.22;;;12.15;100.00
73941;BME280;62294;48.554;10.202;2023-05-11T09:33:23;90268.34;;;12.70;100.00
73941;BME280;62294;48.554;10.202;2023-05-11T09:35:52;90280.56;;;12.78;100.00
73941;BME280;62294;48.554;10.202;2023-05-11T09:38:19;90286.00;;;13.00;100.00
73941;BME280;62294;48.554;10.202;2023-05-11T09:40:53;90454.63;;;12.23;100.00
73941;BME280;62294;48.554;10.202;2023-05-11T09:43:26;90479.53;;;12.41;100.00
73941;BME280;62294;48.554;10.202;2023-05-11T09:45:57;90558.97;;;12.06;100.00
73941;BME280;62294;48.554;10.202;2023-05-11T09:48:29;90629.06;;;11.91;100.00
73941;BME280;62294;48.554;10.202;2023-05-11T09:51:06;90692.53;;;11.70;100.00
73941;BME280;62294;48.554;10.202;2023-05-11T09:53:42;90676.72;;;12.03;100.00
73941;BME280;62294;48.554;10.202;2023-05-11T09:56:11;90679.66;;;12.21;100.00
73941;BME280;62294;48.554;10.202;2023-05-11T09:58:53;90728.69;;;11.97;100.00
73941;BME280;62294;48.554;10.202;2023-05-11T10:01:31;90734.66;;;12.13;100.00
73941;BME280;62294;48.554;10.202;2023-05-11T10:04:00;90722.78;;;12.33;100.00
73941;BME280;62294;48.554;10.202;2023-05-11T10:06:48;90746.75;;;12.33;100.00
73941;BME280;62294;48.554;10.202;2023-05-11T10:09:18;90758.69;;;12.43;100.00
73941;BME280;62294;48.554;10.202;2023-05-11T10:11:48;90830.31;;;12.06;100.00
73941;BME280;62294;48.554;10.202;2023-05-11T10:14:17;90866.75;;;12.02;100.00
73941;BME280;62294;48.554;10.202;2023-05-11T10:16:45;90835.41;;;12.37;100.00
73941;BME280;62294;48.554;10.202;2023-05-11T10:19:12;90833.38;;;12.53;100.00
73941;BME280;62294;48.554;10.202;2023-05-11T10:21:40;90865.94;;;12.43;100.00
73941;BME280;62294;48.554;10.202;2023-05-11T10:24:07;90881.91;;;12.43;100.00
73941;BME280;62294;48.554;10.202;2023-05-11T10:26:33;90869.44;;;12.73;100.00
73941;BME280;62294;48.554;10.202;2023-05-11T10:29:00;90899.28;;;12.60;100.00
73941;BME280;62294;48.554;10.202;2023-05-11T10:31:28;90940.03;;;12.41;100.00
73941;BME280;62294;48.554;10.202;2023-05-11T10:33:56;90947.41;;;12.48;100.00
73941;BME280;62294;48.554;10.202;2023-05-11T10:36:23;90959.94;;;12.47;100.00
73941;BME280;62294;48.554;10.202;2023-05-11T10:38:50;91009.63;;;12.21;100.00
73941;BME280;62294;48.554;10.202;2023-05-11T10:50:46;91001.47;;;12.94;100.00
73941;BME280;62294;48.554;10.202;2023-05-11T10:58:14;91170.72;;;12.34;100.00
73941;BME280;62294;48.554;10.202;2023-05-11T11:03:37;91258.31;;;11.76;100.00
73941;BME280;62294;48.554;10.202;2023-05-11T11:06:04;91289.97;;;11.54;100.00
73941;BME280;62294;48.554;10.202;2023-05-11T11:12:07;91271.38;;;11.54;100.00
73941;BME280;62294;48.554;10.202;2023-05-11T11:14:53;91238.66;;;11.81;100.00
73941;BME280;62294;48.554;10.202;2023-05-11T11:17:22;91190.66;;;12.24;100.00
73941;BME280;62294;48.554;10.202;2023-05-11T11:19:49;91167.88;;;12.42;100.00
73941;BME280;62294;48.554;10.202;2023-05-11T11:25:02;91173.03;;;12.35;100.00
73941;BME280;62294;48.554;10.202;2023-05-11T11:27:54;91250.94;;;11.70;100.00
73941;BME280;62294;48.554;10.202;2023-05-11T11:30:23;91237.22;;;11.83;100.00
73941;BME280;62294;48.554;10.202;2023-05-11T11:32:52;91211.03;;;12.01;100.00
73941;BME280;62294;48.554;10.202;2023-05-11T11:38:07;91243.72;;;11.70;100.00
73941;BME280;62294;48.554;10.202;2023-05-11T11:40:39;91218.94;;;11.82;100.00
73941;BME280;62294;48.554;10.202;2023-05-11T11:43:24;91214.47;;;11.86;100.00
73941;BME280;62294;48.554;10.202;2023-05-11T11:45:52;91176.59;;;12.24;100.00
73941;BME280;62294;48.554;10.202;2023-05-11T11:48:34;91116.72;;;12.71;100.00
73941;BME280;62294;48.554;10.202;2023-05-11T11:56:07;91250.50;;;11.83;100.00
73941;BME280;62294;48.554;10.202;2023-05-11T12:01:08;91258.91;;;11.70;100.00
73941;BME280;62294;48.554;10.202;2023-05-11T12:03:36;91251.97;;;11.81;100.00
73941;BME280;62294;48.554;10.202;2023-05-11T12:06:07;91249.22;;;11.93;100.00
73941;BME280;62294;48.554;10.202;2023-05-11T12:08:36;91277.53;;;11.70;100.00
73941;BME280;62294;48.554;10.202;2023-05-11T12:11:04;91205.81;;;12.39;100.00
73941;BME280;62294;48.554;10.202;2023-05-11T12:13:32;91186.69;;;12.68;100.00
73941;BME280;62294;48.554;10.202;2023-05-11T12:16:12;91238.13;;;12.38;100.00
73941;BME280;62294;48.554;10.202;2023-05-11T12:18:40;91204.41;;;12.80;100.00
73941;BME280;62294;48.554;10.202;2023-05-11T12:21:27;91165.38;;;13.26;100.00
73941;BME280;62294;48.554;10.202;2023-05-11T12:23:57;91185.59;;;13.27;100.00
73941;BME280;62294;48.554;10.202;2023-05-11T12:26:26;91125.16;;;14.02;100.00
73941;BME280;62294;48.554;10.202;2023-05-11T12:29:06;91308.81;;;12.86;100.00
73941;BME280;62294;48.554;10.202;2023-05-11T12:31:37;91358.50;;;12.94;100.00
73941;BME280;62294;48.554;10.202;2023-05-11T12:34:03;91383.34;;;12.98;100.00
73941;BME280;62294;48.554;10.202;2023-05-11T12:36:32;91421.94;;;12.72;100.00
73941;BME280;62294;48.554;10.202;2023-05-11T12:38:59;91434.66;;;12.63;100.00
73941;BME280;62294;48.554;10.202;2023-05-11T12:41:25;91432.47;;;12.84;100.00
73941;BME280;62294;48.554;10.202;2023-05-11T12:43:53;91485.78;;;12.41;100.00
73941;BME280;62294;48.554;10.202;2023-05-11T12:46:22;91552.25;;;11.98;100.00
73941;BME280;62294;48.554;10.202;2023-05-11T12:48:49;91509.13;;;12.32;100.00
73941;BME280;62294;48.554;10.202;2023-05-11T12:52:18;91481.94;;;12.39;100.00
73941;BME280;62294;48.554;10.202;2023-05-11T12:54:37;91490.63;;;12.24;100.00
73941;BME280;62294;48.554;10.202;2023-05-11T12:57:07;91473.75;;;12.32;100.00
73941;BME280;62294;48.554;10.202;2023-05-11T12:59:37;91532.25;;;11.76;100.00
73941;BME280;62294;48.554;10.202;2023-05-11T13:02:14;91465.91;;;12.23;100.00
73941;BME280;62294;48.554;10.202;2023-05-11T13:04:42;91480.69;;;11.93;100.00
73941;BME280;62294;48.554;10.202;2023-05-11T13:07:10;91549.50;;;11.34;100.00
73941;BME280;62294;48.554;10.202;2023-05-11T13:09:38;91504.00;;;11.72;100.00
73941;BME280;62294;48.554;10.202;2023-05-11T13:12:17;91477.91;;;11.77;100.00
73941;BME280;62294;48.554;10.202;2023-05-11T13:14:46;91470.50;;;11.83;100.00
73941;BME280;62294;48.554;10.202;2023-05-11T13:17:27;91431.81;;;12.13;100.00
73941;BME280;62294;48.554;10.202;2023-05-11T13:19:55;91466.75;;;11.84;100.00
73941;BME280;62294;48.554;10.202;2023-05-11T13:22:21;91431.56;;;12.18;100.00
73941;BME280;62294;48.554;10.202;2023-05-11T13:24:48;91437.03;;;12.09;100.00
73941;BME280;62294;48.554;10.202;2023-05-11T13:27:16;91453.38;;;11.96;100.00
73941;BME280;62294;48.554;10.202;2023-05-11T13:29:42;91444.56;;;12.07;100.00
73941;BME280;62294;48.554;10.202;2023-05-11T13:32:08;91485.34;;;11.84;100.00
73941;BME280;62294;48.554;10.202;2023-05-11T13:34:35;91475.16;;;11.86;100.00
73941;BME280;62294;48.554;10.202;2023-05-11T13:37:03;91501.09;;;11.65;100.00